This is the latest recevied weather packets stored in our database for station/object K7D3. If no packets are shown the sender has not sent any weather packets the latest 10 day(s).
| Time | Temp. | Humidity | Pressure | Rain* | Wind** | Luminosity | Snow |
|---|---|---|---|---|---|---|---|
| 1778009806 | 11.67° C | 38% | - | 0 mm | 4.92 m/s, 1° | - | - |
| 1778009327 | 12.22° C | 37% | - | 0 mm | 4.02 m/s, 294° | - | - |
| 1778008849 | 11.67° C | 37% | - | 0 mm | 6.26 m/s, 308° | - | - |
| 1778008367 | 11.67° C | 38% | - | 0 mm | 5.36 m/s, 333° | - | - |
| 1778007888 | 11.67° C | 36% | - | 0 mm | 4.47 m/s, 300° | - | - |
| 1778007410 | 11.67° C | 38% | - | 0 mm | 4.02 m/s, 263° | - | - |
| 1778006928 | 11.67° C | 36% | - | 0 mm | 4.92 m/s, 294° | - | - |
| 1778006449 | 11.67° C | 36% | - | 0 mm | 5.36 m/s, 257° | - | - |
| 1778005970 | 11.11° C | 36% | - | 0 mm | 6.26 m/s, 302° | - | - |
| 1778005488 | 11.67° C | 36% | - | 0 mm | 4.92 m/s, 307° | - | - |
| 1778005010 | 11.11° C | 35% | - | 0 mm | 5.81 m/s, 297° | - | - |
| 1778004531 | 11.11° C | 34% | - | 0 mm | 5.36 m/s, 305° | - | - |
| 1778004049 | 11.67° C | 36% | - | 0 mm | 4.02 m/s, 312° | - | - |
| 1778003570 | 11.67° C | 33% | - | 0 mm | 5.81 m/s, 319° | - | - |
| 1778003092 | 11.67° C | 34% | - | 0 mm | 3.58 m/s, 353° | - | - |
| 1778002610 | 11.11° C | 33% | - | 0 mm | 4.47 m/s, 356° | - | - |
| 1778002131 | 11.67° C | 35% | - | 0 mm | 3.58 m/s, 280° | - | - |
| 1778001668 | 11.67° C | 34% | - | 0 mm | 4.47 m/s, 263° | - | - |
| 1778001171 | 10.56° C | 34% | - | 0 mm | 4.92 m/s, 333° | - | - |
| 1778000692 | 11.11° C | 35% | - | 0 mm | 4.47 m/s, 342° | - | - |
| 1778000214 | 11.11° C | 34% | - | 0 mm | 4.47 m/s, 359° | - | - |
| 1777999732 | 10.56° C | 32% | - | 0 mm | 6.71 m/s, 307° | - | - |
| 1777999253 | 11.11° C | 34% | - | 0 mm | 4.02 m/s, 35° | - | - |
| 1777998774 | 10.56° C | 34% | - | 0 mm | 4.92 m/s, 293° | - | - |
| 1777998292 | 11.11° C | 35% | - | 0 mm | 6.26 m/s, 297° | - | - |
* Rain latest hour (hover to see other rain measurements)
** Current wind speed in m/s (hover to see current wind gust speed)